deformed-offering

Nearby METAR Reports

 

KNUQ - Moffett Nas/Mtn, California, USA
Distance from station: N 9mi, 14km
Updated: Sun, 25-Aug-2019 3:56pm PDT
Clear
Clear
 Wind from NNW
Wind: NNW 10 mph , 17 km/h
Temperature: 79°F , 26°C
Dew Point: 61°F , 16°C
Humidity: 54%
Barometer: 29.96 inHg , 1014.6 hPa
Clouds: Clear
Visibility: 10 miles , 16 km
2019/08/25 22:56 KNUQ 252256Z 34009KT 10SM CLR 26/16 A2996 RMK AO2 SLP146 T02560156
KSJC - San Jose, California, USA
Distance from station: NE 9mi, 14km
Updated: Sun, 25-Aug-2019 3:53pm PDT
Clear
Clear
 Wind from NNW
Wind: NNW 13 mph , 20 km/h
Temperature: 82°F , 28°C
Heat Index: 82°F , 28°C
Dew Point: 61°F , 16°C
Humidity: 48%
Barometer: 29.94 inHg , 1013.9 hPa
Clouds: Clear
Visibility: 10 miles , 16 km
2019/08/25 22:53 KSJC 252253Z 33011KT 10SM CLR 28/16 A2994 RMK AO2 SLP139 T02830161
 
KRHV - San Jose/Reid, California, USA
Distance from station: ENE 12mi, 19km
Updated: Sun, 25-Aug-2019 3:47pm PDT
Clear
Clear
 Wind from NW
Wind: NW 12 mph , 19 km/h
Temperature: 88°F , 31°C
Dew Point: 57°F , 14°C
Humidity: 35%
Barometer: 29.94 inHg , 1013.9 hPa
Clouds: Clear
Visibility: 10 miles , 16 km
2019/08/25 22:47 KRHV 252247Z 31010KT 10SM SKC 31/14 A2994
KPAO - Palo Alto, California, USA
Distance from station: NNW 14mi, 23km
Updated: Sun, 25-Aug-2019 3:47pm PDT
Clear
Clear
 Wind from N
Wind: N 13 mph , 20 km/h
Temperature: 75°F , 24°C
Dew Point: 63°F , 17°C
Humidity: 65%
Barometer: 29.96 inHg , 1014.6 hPa
Clouds: Clear
Visibility: 10 miles , 16 km
2019/08/25 22:47 KPAO 252247Z 35011KT 10SM SKC 24/17 A2996
 
KSQL - San Carlos Airpo, California, USA
Distance from station: NW 21mi, 34km
Updated: Sun, 25-Aug-2019 3:47pm PDT
Clear
Clear
 Wind from NNW
Wind: NNW 8 mph , 13 km/h
Clouds: Clear
Visibility: 10 miles , 16 km
2019/08/25 22:47 KSQL 252247Z 34007KT 10SM SKC /16 A2995
KE16 - San Martin, California, USA
Distance from station: ESE 27mi, 43km
Updated: Mon, 05-Aug-2019 10:10am PDT
NOT Current
Clear
Clear
 Wind from ESE
Wind: ESE 12 mph , 19 km/h
Temperature: 66°F , 19°C
Dew Point: 57°F , 14°C
Humidity: 73%
Barometer: 30.03 inHg , 1016.9 hPa
Clouds: Clear
Visibility: 10 miles , 16 km
2019/08/05 17:10 KE16 051710Z AUTO 12010KT 10SM CLR 19/14 A3003 RMK AO2
 
KWVI - Watsonville, California, USA
Distance from station: SSE 27mi, 44km
Updated: Sun, 25-Aug-2019 3:53pm PDT
Clear
Clear
 Wind from SW
Wind: SW 8 mph , 13 km/h
Temperature: 70°F , 21°C
Dew Point: 59°F , 15°C
Humidity: 69%
Barometer: 29.99 inHg , 1015.6 hPa
Clouds: Clear
Visibility: 10 miles , 16 km
2019/08/25 22:53 KWVI 252253Z AUTO 23007KT 10SM CLR 21/15 A2999 RMK AO2 SLP155 T02110150
KHWD - Hayward, California, USA
Distance from station: N 28mi, 44km
Updated: Sun, 25-Aug-2019 3:54pm PDT
Clear
Clear
 Wind from W
Wind: W 10 mph , 17 km/h
Temperature: 81°F , 27°C
Heat Index: 82°F , 28°C
Dew Point: 61°F , 16°C
Humidity: 51%
Barometer: 29.95 inHg , 1014.2 hPa
Clouds: Clear
Visibility: 10 miles , 16 km
2019/08/25 22:54 KHWD 252254Z 28009KT 10SM CLR 27/16 A2995 RMK AO2 SLP151 T02670161
 
KSFO - San Francisco, California, USA
Distance from station: NW 30mi, 49km
Updated: Sun, 25-Aug-2019 3:56pm PDT
Few Clouds
Few Clouds
 Wind from WNW
Wind: WNW 21 mph , 33 km/h
Temperature: 72°F , 22°C
Dew Point: 57°F , 14°C
Humidity: 61%
Barometer: 29.95 inHg , 1014.2 hPa
Clouds: Few Clouds
Visibility: 10 miles , 16 km
Cloud details: Few Clouds 800 ft
2019/08/25 22:56 KSFO 252256Z 30018KT 10SM FEW008 22/14 A2995 RMK AO2 SLP143 T02170139
KHAF - Half Moon Bay, California, USA
Distance from station: WNW 31mi, 50km
Updated: Sun, 25-Aug-2019 4:00pm PDT
Overcast
Overcast
 Wind from NW
Wind: NW 8 mph , 13 km/h
Temperature: 63°F , 17°C
Dew Point: 59°F , 15°C
Humidity: 88%
Barometer: 30.01 inHg , 1016.3 hPa
Clouds: Overcast
Visibility: 8 miles , 13 km
Cloud details: Overcast 500 ft
2019/08/25 23:00 KHAF 252300Z AUTO 31007KT 8SM OVC005 17/15 A3001 RMK AO2
 
KOAK - Oakland, California, USA
Distance from station: NNW 31mi, 50km
Updated: Sun, 25-Aug-2019 3:53pm PDT
Few Clouds
Few Clouds
 Wind from NW
Wind: NW 12 mph , 19 km/h
Temperature: 75°F , 24°C
Dew Point: 59°F , 15°C
Humidity: 57%
Barometer: 29.97 inHg , 1014.9 hPa
Clouds: Few Clouds
Visibility: 10 miles , 16 km
Cloud details: Few Clouds 800 ft
2019/08/25 22:53 KOAK 252253Z 31010KT 10SM FEW008 24/15 A2997 RMK AO2 SLP148 T02440150
KLVK - Livermore, California, USA
Distance from station: NNE 31mi, 51km
Updated: Sun, 25-Aug-2019 3:53pm PDT
Clear
Clear
 Wind from W
Wind: W 17 mph , 28 km/h
Temperature: 93°F , 34°C
Dew Point: 46°F , 8°C
Humidity: 20%
Barometer: 29.93 inHg , 1013.5 hPa
Clouds: Clear
Visibility: 10 miles , 16 km
2019/08/25 22:53 KLVK 252253Z 27015KT 10SM CLR 34/08 A2993 RMK AO2 SLP130 T03440078
 
KCVH - Hollister Muni, California, USA
Distance from station: SE 42mi, 68km
Updated: Sun, 25-Aug-2019 4:00pm PDT
Clear
Clear
 Wind from WSW
Wind: WSW 18 mph , 30 km/h, Gust: 29 mph , 46 km/h
Temperature: 82°F , 28°C
Heat Index: 82°F , 28°C
Dew Point: 59°F , 15°C
Humidity: 45%
Barometer: 29.94 inHg , 1013.9 hPa
Clouds: Clear
Visibility: 10 miles , 16 km
2019/08/25 23:00 KCVH 252300Z AUTO 24016G25KT 10SM CLR 28/15 A2994 RMK A01
KSNS - Salinas, California, USA
Distance from station: SSE 48mi, 77km
Updated: Sun, 25-Aug-2019 3:53pm PDT
Clear
Clear
 Wind from WNW
Wind: WNW 14 mph , 22 km/h
Temperature: 68°F , 20°C
Dew Point: 59°F , 15°C
Humidity: 73%
Barometer: 29.98 inHg , 1015.2 hPa
Clouds: Clear
Visibility: 10 miles , 16 km
2019/08/25 22:53 KSNS 252253Z 30012KT 10SM CLR 20/15 A2998 RMK AO2 SLP162 T02000150
 
KMRY - Monterey, California, USA
Distance from station: SSE 49mi, 78km
Updated: Sun, 25-Aug-2019 3:54pm PDT
Partly Cloudy
Partly Cloudy
 Wind from NW
Wind: NW 12 mph , 19 km/h
Temperature: 70°F , 21°C
Dew Point: 57°F , 14°C
Humidity: 64%
Barometer: 30.00 inHg , 1015.9 hPa
Clouds: Partly Cloudy
Visibility: 10 miles , 16 km
Cloud details: Partly Cloudy 300 ft
2019/08/25 22:54 KMRY 252254Z 31010KT 10SM SCT003 21/14 A3000 RMK AO2 SLP168 T02060144
KCCR - Concord, California, USA
Distance from station: N 50mi, 81km
Updated: Sun, 25-Aug-2019 3:53pm PDT
Clear
Clear
 Wind from WNW
Wind: WNW 10 mph , 17 km/h
Temperature: 95°F , 35°C
Dew Point: 54°F , 12°C
Humidity: 25%
Barometer: 29.92 inHg , 1013.2 hPa
Clouds: Clear
Visibility: 10 miles , 16 km
2019/08/25 22:53 KCCR 252253Z 29009KT 250V310 10SM CLR 35/12 A2992 RMK AO2 SLP118 T03500122 $
deformed-offering